createdAt,value
2018-04-18T00:01:44.350Z,102704.80
2018-04-18T00:04:12.135Z,102704.56
2018-04-18T00:06:39.786Z,102705.66
2018-04-18T00:09:07.727Z,102711.81
2018-04-18T00:11:35.591Z,102705.96
2018-04-18T00:14:03.580Z,102711.70
2018-04-18T00:16:31.189Z,102706.81
2018-04-18T00:18:59.096Z,102706.97
2018-04-18T00:21:26.718Z,102710.78
2018-04-18T00:23:54.337Z,102709.56
2018-04-18T00:26:21.958Z,102715.55
2018-04-18T00:28:49.664Z,102717.05
2018-04-18T00:31:17.281Z,102717.61
2018-04-18T00:33:44.930Z,102713.81
2018-04-18T00:36:12.640Z,102716.12
2018-04-18T00:38:40.923Z,102716.69
2018-04-18T00:41:08.604Z,102714.95
2018-04-18T00:43:36.351Z,102717.95
2018-04-18T00:46:03.951Z,102713.32
2018-04-18T00:48:32.262Z,102714.94
2018-04-18T00:50:59.878Z,102714.66
2018-04-18T00:53:27.596Z,102717.94
2018-04-18T00:55:55.208Z,102718.36
2018-04-18T00:58:22.950Z,102724.32
2018-04-18T01:00:50.580Z,102722.86
2018-04-18T01:03:18.344Z,102721.49
2018-04-18T01:05:45.994Z,102725.98
2018-04-18T01:08:13.984Z,102723.52
2018-04-18T01:10:41.648Z,102720.66
2018-04-18T01:13:09.297Z,102723.93
2018-04-18T01:15:36.979Z,102723.79
2018-04-18T01:18:04.651Z,102725.56
2018-04-18T01:20:32.404Z,102730.06
2018-04-18T01:22:59.984Z,102727.59
2018-04-18T01:25:27.731Z,102730.59
2018-04-18T01:27:55.748Z,102727.63
2018-04-18T01:30:23.399Z,102729.36
2018-04-18T01:32:51.116Z,102727.20
2018-04-18T01:35:18.814Z,102739.02
2018-04-18T01:37:46.422Z,102733.85
2018-04-18T01:40:14.112Z,102740.51
2018-04-18T01:42:42.780Z,102740.50
2018-04-18T01:45:10.506Z,102742.55
2018-04-18T01:47:38.123Z,102742.02
2018-04-18T01:50:05.699Z,102740.65
2018-04-18T01:52:33.741Z,102742.28
2018-04-18T01:55:02.143Z,102740.91
2018-04-18T01:57:29.853Z,102748.35
2018-04-18T01:59:57.552Z,102746.88
2018-04-18T02:02:25.169Z,102744.95
2018-04-18T02:04:52.956Z,102756.36
2018-04-18T02:07:20.587Z,102760.56
2018-04-18T02:09:48.466Z,102759.33
2018-04-18T02:12:16.178Z,102760.81
2018-04-18T02:14:43.945Z,102763.11
2018-04-18T02:17:11.738Z,102767.45
2018-04-18T02:19:39.354Z,102768.00
2018-04-18T02:22:07.084Z,102770.14
2018-04-18T02:24:34.750Z,102771.49
2018-04-18T02:27:02.431Z,102770.55
2018-04-18T02:29:30.132Z,102780.57
2018-04-18T02:31:57.819Z,102779.89
2018-04-18T02:34:25.551Z,102778.66
2018-04-18T02:36:53.308Z,102777.97
2018-04-18T02:39:21.013Z,102777.39
2018-04-18T02:41:48.667Z,102784.57
2018-04-18T02:44:16.316Z,102780.62
2018-04-18T02:46:44.067Z,102789.81
2018-04-18T02:49:11.761Z,102792.66
2018-04-18T02:51:39.694Z,102782.61
2018-04-18T02:54:07.393Z,102788.97
2018-04-18T02:56:35.028Z,102793.72
2018-04-18T02:59:02.696Z,102790.84
2018-04-18T03:01:30.298Z,102799.93
2018-04-18T03:03:58.310Z,102799.78
2018-04-18T03:06:25.980Z,102804.91
2018-04-18T03:08:53.697Z,102812.23
2018-04-18T03:11:21.352Z,102817.25
2018-04-18T03:13:48.986Z,102820.47
2018-04-18T03:16:16.616Z,102822.64
2018-04-18T03:18:44.273Z,102826.28
2018-04-18T03:21:11.891Z,102826.13
2018-04-18T03:23:39.571Z,102824.88
2018-04-18T03:26:07.233Z,102824.47
2018-04-18T03:28:34.821Z,102824.97
2018-04-18T03:31:02.438Z,102821.85
2018-04-18T03:33:30.082Z,102826.28
2018-04-18T03:35:57.736Z,102823.84
2018-04-18T03:38:25.787Z,102828.59
2018-04-18T03:40:53.651Z,102829.25
2018-04-18T03:43:21.261Z,102827.34
2018-04-18T03:45:48.881Z,102825.42
2018-04-18T03:48:16.547Z,102832.46
2018-04-18T03:50:44.274Z,102830.95
2018-04-18T03:53:11.972Z,102825.92
2018-04-18T03:55:39.622Z,102835.69
2018-04-18T03:58:07.422Z,102831.04
2018-04-18T04:00:35.095Z,102838.50
2018-04-18T04:03:02.743Z,102832.50
2018-04-18T04:05:30.687Z,102837.77
2018-04-18T04:07:58.272Z,102841.82
2018-04-18T04:10:25.990Z,102834.63
2018-04-18T04:12:53.585Z,102838.80
2018-04-18T04:15:21.325Z,102843.49
2018-04-18T04:18:00.835Z,102840.23
2018-04-18T04:20:40.653Z,102843.45
2018-04-18T04:23:20.091Z,102845.19
2018-04-18T04:25:47.820Z,102850.88
2018-04-18T04:28:15.495Z,102859.69
2018-04-18T04:30:43.321Z,102860.20
2018-04-18T04:33:11.052Z,102864.95
2018-04-18T04:35:38.705Z,102864.25
2018-04-18T04:38:06.350Z,102868.45
2018-04-18T04:40:33.946Z,102877.26
2018-04-18T04:43:01.996Z,102875.20
2018-04-18T04:45:29.612Z,102876.30
2018-04-18T04:47:57.634Z,102877.87
2018-04-18T04:50:26.202Z,102879.75
2018-04-18T04:52:53.970Z,102888.66
2018-04-18T04:55:21.685Z,102892.47
2018-04-18T04:57:49.331Z,102894.89
2018-04-18T05:00:16.992Z,102899.22
2018-04-18T05:02:44.653Z,102902.87
2018-04-18T05:05:12.507Z,102901.93
2018-04-18T05:07:40.271Z,102904.77
2018-04-18T05:10:07.868Z,102912.77
2018-04-18T05:12:35.520Z,102909.80
2018-04-18T05:15:03.243Z,102909.83
2018-04-18T05:17:30.880Z,102914.22
2018-04-18T05:19:58.505Z,102921.28
2018-04-18T05:22:26.140Z,102921.31
2018-04-18T05:24:53.731Z,102920.70
2018-04-18T05:27:21.764Z,102930.34
2018-04-18T05:29:49.537Z,102927.69
2018-04-18T05:32:17.541Z,102934.69
2018-04-18T05:34:45.289Z,102939.49
2018-04-18T05:37:12.985Z,102939.83
2018-04-18T05:39:40.587Z,102940.98
2018-04-18T05:42:08.247Z,102939.58
2018-04-18T05:44:35.885Z,102947.82
2018-04-18T05:47:03.479Z,102954.12
2018-04-18T05:49:31.421Z,102950.80
2018-04-18T05:51:59.107Z,102953.74
2018-04-18T05:54:26.818Z,102959.11
2018-04-18T05:56:54.722Z,102962.46
2018-04-18T05:59:23.219Z,102962.27
2018-04-18T06:01:50.817Z,102968.16
2018-04-18T06:04:18.447Z,102970.16
2018-04-18T06:06:46.298Z,102978.48
2018-04-18T06:09:13.906Z,102974.22
2018-04-18T06:11:41.596Z,102979.56
2018-04-18T06:14:09.188Z,102974.83
2018-04-18T06:16:36.944Z,102969.19
2018-04-18T06:19:04.556Z,102970.17
2018-04-18T06:21:32.140Z,102967.78
2018-04-18T06:23:59.813Z,102970.80
2018-04-18T06:26:27.416Z,102975.87
2018-04-18T06:28:55.348Z,102982.89
2018-04-18T06:31:22.930Z,102985.75
2018-04-18T06:33:50.545Z,102986.34
2018-04-18T06:36:18.238Z,102979.67
2018-04-18T06:38:46.087Z,102975.75
2018-04-18T06:41:13.846Z,102980.66
2018-04-18T06:43:41.429Z,102990.86
2018-04-18T06:46:09.092Z,102990.96
2018-04-18T06:48:36.700Z,102998.84
2018-04-18T06:51:04.506Z,102995.98
2018-04-18T06:53:32.097Z,102994.55
2018-04-18T06:56:00.019Z,103002.40
2018-04-18T06:58:27.687Z,102997.54
2018-04-18T07:00:55.282Z,103009.55
2018-04-18T07:03:22.970Z,103007.00
2018-04-18T07:05:51.411Z,103009.70
2018-04-18T07:08:19.068Z,103009.02
2018-04-18T07:10:46.694Z,103012.25
2018-04-18T07:13:14.411Z,103010.43
2018-04-18T07:15:42.022Z,103013.21
2018-04-18T07:18:09.938Z,103009.73
2018-04-18T07:20:37.648Z,103010.52
2018-04-18T07:23:05.264Z,103018.04
2018-04-18T07:25:33.223Z,103007.80
2018-04-18T07:28:00.819Z,103008.36
2018-04-18T07:30:28.987Z,103007.41
2018-04-18T07:32:56.716Z,103008.33
2018-04-18T07:35:24.444Z,103015.16
2018-04-18T07:37:52.064Z,103010.18
2018-04-18T07:40:19.661Z,103010.64
2018-04-18T07:42:47.285Z,103014.52
2018-04-18T07:45:14.941Z,103016.74
2018-04-18T07:47:42.570Z,103016.70
2018-04-18T07:50:10.466Z,103017.95
2018-04-18T07:52:38.071Z,103020.52
2018-04-18T07:55:06.155Z,103020.67
2018-04-18T07:57:33.888Z,103027.41
2018-04-18T08:00:01.491Z,103028.80
2018-04-18T08:02:29.126Z,103030.81
2018-04-18T08:04:57.069Z,103025.70
2018-04-18T08:07:24.866Z,103030.17
2018-04-18T08:09:52.558Z,103032.24
2018-04-18T08:12:20.164Z,103037.00
2018-04-18T08:14:47.885Z,103037.87
2018-04-18T08:17:15.581Z,103040.02
2018-04-18T08:19:43.250Z,103041.16
2018-04-18T08:22:11.319Z,103038.61
2018-04-18T08:24:39.192Z,103038.62
2018-04-18T08:27:06.871Z,103035.23
2018-04-18T08:29:34.589Z,103039.60
2018-04-18T08:32:02.199Z,103035.33
2018-04-18T08:34:29.995Z,103037.18
2018-04-18T08:36:57.895Z,103043.37
2018-04-18T08:39:25.573Z,103045.89
2018-04-18T08:41:53.188Z,103043.66
2018-04-18T08:44:20.856Z,103050.94
2018-04-18T08:46:48.503Z,103047.83
2018-04-18T08:49:16.193Z,103051.75
2018-04-18T08:51:43.806Z,103045.28
2018-04-18T08:54:11.447Z,103048.99
2018-04-18T08:59:16.693Z,103049.50
2018-04-18T09:01:44.289Z,103052.38
2018-04-18T09:04:12.300Z,103050.30
2018-04-18T09:06:40.105Z,103048.84
2018-04-18T09:09:07.760Z,103056.92
2018-04-18T09:11:35.814Z,103048.81
2018-04-18T09:14:03.432Z,103050.39
2018-04-18T09:16:31.265Z,103045.61
2018-04-18T09:18:58.959Z,103053.16
2018-04-18T09:21:26.556Z,103045.44
2018-04-18T09:23:54.291Z,103049.27
2018-04-18T09:26:21.933Z,103049.64
2018-04-18T09:28:49.649Z,103053.27
2018-04-18T09:31:17.250Z,103054.19
2018-04-18T09:33:44.843Z,103047.07
2018-04-18T09:36:12.529Z,103044.43
2018-04-18T09:38:40.120Z,103052.50
2018-04-18T09:41:08.169Z,103043.09
2018-04-18T09:43:36.256Z,103045.52
2018-04-18T09:46:04.210Z,103045.70
2018-04-18T09:48:31.862Z,103042.78
2018-04-18T09:50:59.520Z,103045.86
2018-04-18T09:53:27.377Z,103051.77
2018-04-18T09:55:55.034Z,103044.27
2018-04-18T09:58:23.020Z,103044.75
2018-04-18T10:00:56.552Z,103040.34
2018-04-18T10:03:24.827Z,103043.08
2018-04-18T10:05:52.483Z,103040.62
2018-04-18T10:08:20.074Z,103045.75
2018-04-18T10:10:47.734Z,103052.21
2018-04-18T10:13:15.385Z,103041.35
2018-04-18T10:15:43.266Z,103038.48
2018-04-18T10:18:10.880Z,103042.18
2018-04-18T10:20:38.577Z,103046.94
2018-04-18T10:23:06.280Z,103048.05
2018-04-18T10:25:33.941Z,103041.30
2018-04-18T10:28:01.521Z,103048.45
2018-04-18T10:30:29.495Z,103046.23
2018-04-18T10:32:57.072Z,103039.28
2018-04-18T10:35:24.684Z,103048.47
2018-04-18T10:37:52.595Z,103040.80
2018-04-18T10:40:20.575Z,103036.81
2018-04-18T10:42:48.251Z,103037.34
2018-04-18T10:45:16.107Z,103036.69
2018-04-18T10:47:43.756Z,103030.94
2018-04-18T10:50:11.365Z,103031.94
2018-04-18T10:52:39.014Z,103031.61
2018-04-18T10:55:06.640Z,103027.14
2018-04-18T10:57:34.252Z,103032.45
2018-04-18T11:00:01.855Z,103032.66
2018-04-18T11:02:29.467Z,103037.50
2018-04-18T11:04:57.767Z,103026.34
2018-04-18T11:07:25.636Z,103025.11
2018-04-18T11:09:53.289Z,103025.12
2018-04-18T11:12:21.204Z,103034.13
2018-04-18T11:14:48.983Z,103031.16
2018-04-18T11:17:16.972Z,103025.35
2018-04-18T11:19:44.653Z,103029.14
2018-04-18T11:22:12.571Z,103037.50
2018-04-18T11:24:40.580Z,103026.58
2018-04-18T11:27:08.265Z,103027.95
2018-04-18T11:29:35.914Z,103018.91
2018-04-18T11:32:03.524Z,103022.86
2018-04-18T11:34:31.178Z,103017.78
2018-04-18T11:36:58.827Z,103013.83
2018-04-18T11:39:26.410Z,103019.84
2018-04-18T11:41:54.027Z,103018.39
2018-04-18T11:44:21.622Z,103023.92
2018-04-18T11:46:49.295Z,103022.22
2018-04-18T11:49:16.950Z,103016.03
2018-04-18T11:51:44.559Z,103011.41
2018-04-18T11:54:12.217Z,103017.91
2018-04-18T11:56:39.967Z,103009.61
2018-04-18T11:59:07.584Z,103012.16
2018-04-18T12:01:35.240Z,103008.54
2018-04-18T12:04:02.859Z,103005.80
2018-04-18T12:06:30.490Z,103007.59
2018-04-18T12:08:58.080Z,103010.98
2018-04-18T12:11:26.049Z,103001.55
2018-04-18T12:13:53.737Z,103002.18
2018-04-18T12:16:21.531Z,103004.31
2018-04-18T12:18:49.120Z,103004.97
2018-04-18T12:21:16.739Z,103002.37
2018-04-18T12:23:44.697Z,103007.18
2018-04-18T12:26:12.296Z,103003.41
2018-04-18T12:28:39.982Z,103014.34
2018-04-18T12:31:07.658Z,103008.21
2018-04-18T12:33:35.281Z,103007.02
2018-04-18T12:36:03.041Z,103005.61
2018-04-18T12:38:30.734Z,102998.45
2018-04-18T12:40:58.346Z,103001.08
2018-04-18T12:43:26.005Z,102995.67
2018-04-18T12:45:53.592Z,102984.15
2018-04-18T12:48:21.639Z,102994.77
2018-04-18T12:50:49.276Z,102986.55
2018-04-18T12:53:17.109Z,102982.53
2018-04-18T12:55:44.789Z,102984.09
2018-04-18T12:58:12.374Z,102980.46
2018-04-18T13:00:39.989Z,102981.86
2018-04-18T13:03:07.667Z,102977.22
2018-04-18T13:05:35.357Z,102975.30
2018-04-18T13:08:03.101Z,102978.89
2018-04-18T13:10:30.717Z,102972.06
2018-04-18T13:12:58.323Z,102967.78
2018-04-18T13:15:26.667Z,102961.30
2018-04-18T13:17:54.476Z,102964.41
2018-04-18T13:20:22.309Z,102963.64
2018-04-18T13:22:50.047Z,102955.20
2018-04-18T13:25:17.707Z,102961.34
2018-04-18T13:27:45.700Z,102958.80
2018-04-18T13:30:13.352Z,102957.80
2018-04-18T13:32:41.415Z,102955.37
2018-04-18T13:35:09.045Z,102953.48
2018-04-18T13:37:36.735Z,102943.15
2018-04-18T13:40:04.412Z,102949.15
2018-04-18T13:42:32.036Z,102942.90
2018-04-18T13:45:00.191Z,102936.91
2018-04-18T13:47:27.822Z,102936.26
2018-04-18T13:49:55.808Z,102927.25
2018-04-18T13:52:23.428Z,102930.31
2018-04-18T13:54:51.438Z,102923.83
2018-04-18T13:57:19.236Z,102923.88
2018-04-18T13:59:46.815Z,102923.58
2018-04-18T14:02:14.931Z,102922.78
2018-04-18T14:04:42.654Z,102929.65
2018-04-18T14:07:10.664Z,102926.50
2018-04-18T14:09:38.824Z,102922.96
2018-04-18T14:12:06.706Z,102919.98
2018-04-18T14:14:34.358Z,102928.35
2018-04-18T14:17:02.402Z,102923.36
2018-04-18T14:19:30.131Z,102916.41
2018-04-18T14:21:58.069Z,102916.84
2018-04-18T14:24:25.787Z,102916.98
2018-04-18T14:26:53.407Z,102919.35
2018-04-18T14:29:21.075Z,102907.86
2018-04-18T14:31:48.829Z,102907.25
2018-04-18T14:34:16.457Z,102906.48
2018-04-18T14:36:44.193Z,102907.11
2018-04-18T14:39:12.021Z,102911.31
2018-04-18T14:41:39.602Z,102908.23
2018-04-18T14:44:07.234Z,102898.30
2018-04-18T14:46:35.202Z,102898.45
2018-04-18T14:49:02.949Z,102898.39
2018-04-18T14:51:30.573Z,102896.98
2018-04-18T14:53:58.259Z,102900.39
2018-04-18T14:56:25.936Z,102895.70
2018-04-18T14:58:53.976Z,102893.16
2018-04-18T15:01:21.714Z,102891.73
2018-04-18T15:03:49.406Z,102893.06
2018-04-18T15:06:17.142Z,102894.52
2018-04-18T15:08:44.752Z,102896.02
2018-04-18T15:11:12.550Z,102893.33
2018-04-18T15:13:40.255Z,102887.05
2018-04-18T15:16:07.918Z,102887.64
2018-04-18T15:18:35.519Z,102880.42
2018-04-18T15:21:03.219Z,102876.31
2018-04-18T15:23:30.961Z,102880.47
2018-04-18T15:25:58.924Z,102876.84
2018-04-18T15:28:26.761Z,102870.78
2018-04-18T15:30:54.661Z,102868.03
2018-04-18T15:33:22.325Z,102872.37
2018-04-18T15:35:50.414Z,102880.70
2018-04-18T15:38:18.060Z,102872.80
2018-04-18T15:40:45.927Z,102870.63
2018-04-18T15:43:13.647Z,102872.69
2018-04-18T15:45:41.265Z,102868.82
2018-04-18T15:48:08.939Z,102867.27
2018-04-18T15:50:36.613Z,102863.08
2018-04-18T15:53:04.434Z,102862.49
2018-04-18T15:55:32.040Z,102862.84
2018-04-18T15:58:00.311Z,102860.95
2018-04-18T16:00:28.009Z,102860.31
2018-04-18T16:02:55.747Z,102858.92
2018-04-18T16:05:23.383Z,102859.62
2018-04-18T16:07:51.040Z,102862.20
2018-04-18T16:10:19.070Z,102853.28
2018-04-18T16:12:46.980Z,102855.50
2018-04-18T16:15:14.696Z,102856.23
2018-04-18T16:17:42.782Z,102855.38
2018-04-18T16:20:10.696Z,102851.34
2018-04-18T16:22:38.332Z,102856.19
2018-04-18T16:25:06.076Z,102855.78
2018-04-18T16:27:33.746Z,102857.00
2018-04-18T16:30:01.359Z,102858.80
2018-04-18T16:32:29.078Z,102854.22
2018-04-18T16:34:56.745Z,102865.13
2018-04-18T16:37:24.350Z,102860.97
2018-04-18T16:39:52.132Z,102851.55
2018-04-18T16:42:19.742Z,102857.41
2018-04-18T16:44:47.354Z,102851.15
2018-04-18T16:47:15.199Z,102852.55
2018-04-18T16:49:42.824Z,102845.48
2018-04-18T16:52:10.632Z,102851.00
2018-04-18T16:54:38.351Z,102846.72
2018-04-18T16:57:05.962Z,102846.52
2018-04-18T16:59:33.649Z,102838.50
2018-04-18T17:02:01.497Z,102841.69
2018-04-18T17:04:29.121Z,102835.72
2018-04-18T17:06:57.026Z,102833.17
2018-04-18T17:09:24.637Z,102833.94
2018-04-18T17:11:53.380Z,102834.07
2018-04-18T17:14:20.999Z,102837.27
2018-04-18T17:16:48.652Z,102832.73
2018-04-18T17:19:16.685Z,102837.98
2018-04-18T17:21:44.305Z,102840.92
2018-04-18T17:24:11.902Z,102845.16
2018-04-18T17:26:40.218Z,102833.96
2018-04-18T17:29:07.958Z,102839.19
2018-04-18T17:31:35.653Z,102834.34
2018-04-18T17:34:03.341Z,102836.53
2018-04-18T17:36:31.556Z,102844.14
2018-04-18T17:38:59.425Z,102837.41
2018-04-18T17:41:27.036Z,102831.00
2018-04-18T17:43:55.103Z,102836.44
2018-04-18T17:46:22.777Z,102836.50
2018-04-18T17:48:50.390Z,102836.56
2018-04-18T17:51:18.352Z,102839.13
2018-04-18T17:53:46.008Z,102837.00
2018-04-18T17:56:13.600Z,102840.91
2018-04-18T17:58:41.212Z,102838.52
2018-04-18T18:01:08.831Z,102844.31
2018-04-18T18:03:36.524Z,102843.39
2018-04-18T18:06:04.133Z,102841.46
2018-04-18T18:08:32.018Z,102846.16
2018-04-18T18:10:59.627Z,102842.39
2018-04-18T18:13:27.385Z,102849.47
2018-04-18T18:15:55.103Z,102848.38
2018-04-18T18:18:22.701Z,102852.48
2018-04-18T18:20:50.637Z,102853.05
2018-04-18T18:23:18.235Z,102857.17
2018-04-18T18:25:46.169Z,102858.89
2018-04-18T18:28:13.753Z,102853.66
2018-04-18T18:30:41.813Z,102854.48
2018-04-18T18:33:09.468Z,102849.95
2018-04-18T18:35:37.107Z,102856.72
2018-04-18T18:38:04.944Z,102850.36
2018-04-18T18:40:32.529Z,102852.11
2018-04-18T18:43:00.347Z,102854.91
2018-04-18T18:45:28.031Z,102862.78
2018-04-18T18:47:55.812Z,102859.77
2018-04-18T18:50:23.427Z,102861.50
2018-04-18T18:52:51.352Z,102864.02
2018-04-18T18:55:19.469Z,102864.86
2018-04-18T18:57:47.118Z,102866.84
2018-04-18T19:00:14.770Z,102868.20
2018-04-18T19:02:42.517Z,102869.44
2018-04-18T19:05:10.180Z,102872.05
2018-04-18T19:07:37.841Z,102872.67
2018-04-18T19:10:06.177Z,102874.94
2018-04-18T19:12:34.048Z,102875.58
2018-04-18T19:15:01.793Z,102878.53
2018-04-18T19:17:29.452Z,102876.41
2018-04-18T19:19:57.522Z,102881.16
2018-04-18T19:22:25.191Z,102884.00
2018-04-18T19:24:52.905Z,102886.22
2018-04-18T19:27:20.519Z,102879.40
2018-04-18T19:29:48.149Z,102882.27
2018-04-18T19:32:16.241Z,102880.72
2018-04-18T19:34:43.832Z,102881.68
2018-04-18T19:37:11.697Z,102887.91
2018-04-18T19:39:39.348Z,102882.96
2018-04-18T19:42:07.025Z,102890.11
2018-04-18T19:44:34.674Z,102891.92
2018-04-18T19:47:02.397Z,102886.77
2018-04-18T19:49:30.023Z,102880.85
2018-04-18T19:51:58.057Z,102884.31
2018-04-18T19:54:25.701Z,102883.31
2018-04-18T19:56:53.452Z,102882.77
2018-04-18T19:59:21.111Z,102885.52
2018-04-18T20:01:48.756Z,102881.75
2018-04-18T20:04:16.876Z,102885.70
2018-04-18T20:06:44.671Z,102880.61
2018-04-18T20:09:13.279Z,102885.03
2018-04-18T20:11:41.043Z,102886.93
2018-04-18T20:14:08.823Z,102888.16
2018-04-18T20:16:36.481Z,102889.96
2018-04-18T20:19:04.094Z,102891.30
2018-04-18T20:21:31.703Z,102893.17
2018-04-18T20:23:59.351Z,102894.13
2018-04-18T20:26:27.048Z,102892.86
2018-04-18T20:28:54.680Z,102887.43
2018-04-18T20:31:22.311Z,102891.14
2018-04-18T20:33:50.356Z,102892.88
2018-04-18T20:36:18.190Z,102890.28
2018-04-18T20:38:45.776Z,102889.31
2018-04-18T20:41:13.457Z,102887.75
2018-04-18T20:43:41.048Z,102890.33
2018-04-18T20:46:08.724Z,102890.72
2018-04-18T20:48:36.336Z,102892.58
2018-04-18T20:51:03.939Z,102890.46
2018-04-18T20:53:31.974Z,102896.45
2018-04-18T20:55:59.636Z,102892.35
2018-04-18T20:58:27.300Z,102892.89
2018-04-18T21:00:54.998Z,102897.58
2018-04-18T21:03:22.584Z,102892.05
2018-04-18T21:05:50.276Z,102891.40
2018-04-18T21:08:17.889Z,102884.56
2018-04-18T21:10:46.139Z,102887.62
2018-04-18T21:13:13.802Z,102889.27
2018-04-18T21:15:41.465Z,102892.23
2018-04-18T21:18:09.094Z,102890.84
2018-04-18T21:20:37.069Z,102886.78
2018-04-18T21:23:04.736Z,102887.49
2018-04-18T21:25:32.355Z,102888.84
2018-04-18T21:28:00.001Z,102890.60
2018-04-18T21:30:27.660Z,102891.56
2018-04-18T21:32:55.448Z,102892.43
2018-04-18T21:35:23.140Z,102892.72
2018-04-18T21:37:50.761Z,102885.42
2018-04-18T21:40:18.381Z,102880.31
2018-04-18T21:42:46.119Z,102888.88
2018-04-18T21:47:43.555Z,102889.84
2018-04-18T21:50:11.740Z,102896.12
2018-04-18T21:52:39.845Z,102897.14
2018-04-18T21:55:08.014Z,102898.81
2018-04-18T21:57:36.246Z,102897.52
2018-04-18T22:00:04.363Z,102892.38
2018-04-18T22:02:32.234Z,102891.34
2018-04-18T22:04:59.819Z,102883.11
2018-04-18T22:07:27.750Z,102889.04
2018-04-18T22:09:55.745Z,102886.61
2018-04-18T22:12:23.447Z,102889.64
2018-04-18T22:14:51.228Z,102892.48
2018-04-18T22:17:18.872Z,102888.64
2018-04-18T22:19:46.596Z,102896.94
2018-04-18T22:22:14.679Z,102895.61
2018-04-18T22:24:42.292Z,102885.53
2018-04-18T22:27:09.936Z,102889.61
2018-04-18T22:29:37.556Z,102893.14
2018-04-18T22:32:05.157Z,102894.41
2018-04-18T22:34:32.766Z,102892.14
2018-04-18T22:37:00.375Z,102896.47
2018-04-18T22:39:28.082Z,102894.73
2018-04-18T22:41:55.694Z,102894.63
2018-04-18T22:44:23.559Z,102892.35
2018-04-18T22:46:51.250Z,102888.76
2018-04-18T22:49:19.350Z,102891.02
2018-04-18T22:51:47.415Z,102889.54
2018-04-18T22:54:15.005Z,102893.03
2018-04-18T22:56:42.593Z,102888.33
2018-04-18T22:59:10.615Z,102887.47
2018-04-18T23:01:38.215Z,102880.03
2018-04-18T23:04:05.871Z,102879.56
2018-04-18T23:06:33.536Z,102878.81
2018-04-18T23:09:01.123Z,102877.64
2018-04-18T23:11:29.091Z,102877.77
2018-04-18T23:13:56.997Z,102877.85
2018-04-18T23:16:24.593Z,102876.48
2018-04-18T23:18:53.040Z,102871.73
2018-04-18T23:21:20.709Z,102870.83
2018-04-18T23:23:48.589Z,102866.24
2018-04-18T23:26:16.366Z,102870.67
2018-04-18T23:28:44.079Z,102868.39
2018-04-18T23:31:12.443Z,102863.63
2018-04-18T23:33:40.111Z,102867.42
2018-04-18T23:36:07.724Z,102862.78
2018-04-18T23:38:35.474Z,102864.78
2018-04-18T23:41:03.457Z,102859.91
2018-04-18T23:43:31.453Z,102865.59
2018-04-18T23:45:59.109Z,102862.90
2018-04-18T23:48:26.786Z,102852.98
2018-04-18T23:50:54.601Z,102855.61
2018-04-18T23:53:22.436Z,102853.91
2018-04-18T23:55:50.501Z,102860.23
2018-04-18T23:58:18.104Z,102851.14
